sensor_id;sensor_type;location;lat;lon;timestamp;P1;durP1;ratioP1;P2;durP2;ratioP2
21012;SDS011;10664;53.582;9.712;2022-08-19T00:02:09;7.18;;;6.55;;
21012;SDS011;10664;53.582;9.712;2022-08-19T00:04:35;6.75;;;6.13;;
21012;SDS011;10664;53.582;9.712;2022-08-19T00:07:02;7.18;;;6.57;;
21012;SDS011;10664;53.582;9.712;2022-08-19T00:09:28;6.88;;;6.22;;
21012;SDS011;10664;53.582;9.712;2022-08-19T00:11:55;7.95;;;7.30;;
21012;SDS011;10664;53.582;9.712;2022-08-19T00:14:22;7.68;;;6.97;;
21012;SDS011;10664;53.582;9.712;2022-08-19T00:16:49;8.10;;;7.40;;
21012;SDS011;10664;53.582;9.712;2022-08-19T00:19:18;9.32;;;8.43;;
21012;SDS011;10664;53.582;9.712;2022-08-19T00:21:44;8.32;;;7.63;;
21012;SDS011;10664;53.582;9.712;2022-08-19T00:24:11;8.38;;;7.65;;
21012;SDS011;10664;53.582;9.712;2022-08-19T00:26:39;8.98;;;8.07;;
21012;SDS011;10664;53.582;9.712;2022-08-19T00:29:05;9.68;;;8.65;;
21012;SDS011;10664;53.582;9.712;2022-08-19T00:31:32;9.77;;;8.82;;
21012;SDS011;10664;53.582;9.712;2022-08-19T00:33:58;8.98;;;8.27;;
21012;SDS011;10664;53.582;9.712;2022-08-19T00:36:24;9.15;;;8.25;;
21012;SDS011;10664;53.582;9.712;2022-08-19T00:38:50;10.52;;;9.63;;
21012;SDS011;10664;53.582;9.712;2022-08-19T00:41:18;10.13;;;9.18;;
21012;SDS011;10664;53.582;9.712;2022-08-19T00:43:56;10.38;;;9.38;;
21012;SDS011;10664;53.582;9.712;2022-08-19T00:46:23;11.50;;;10.40;;
21012;SDS011;10664;53.582;9.712;2022-08-19T00:48:49;10.55;;;9.60;;
21012;SDS011;10664;53.582;9.712;2022-08-19T00:51:15;11.25;;;10.18;;
21012;SDS011;10664;53.582;9.712;2022-08-19T00:53:41;11.65;;;10.55;;
21012;SDS011;10664;53.582;9.712;2022-08-19T00:56:08;13.23;;;11.93;;
21012;SDS011;10664;53.582;9.712;2022-08-19T00:58:34;13.77;;;12.43;;
21012;SDS011;10664;53.582;9.712;2022-08-19T01:01:01;13.65;;;12.25;;
21012;SDS011;10664;53.582;9.712;2022-08-19T01:03:28;14.52;;;13.07;;
21012;SDS011;10664;53.582;9.712;2022-08-19T01:05:54;14.25;;;12.75;;
21012;SDS011;10664;53.582;9.712;2022-08-19T01:08:20;14.32;;;12.93;;
21012;SDS011;10664;53.582;9.712;2022-08-19T01:10:47;13.27;;;11.65;;
21012;SDS011;10664;53.582;9.712;2022-08-19T01:13:15;12.60;;;11.30;;
21012;SDS011;10664;53.582;9.712;2022-08-19T01:15:42;12.00;;;10.80;;
21012;SDS011;10664;53.582;9.712;2022-08-19T01:18:10;12.40;;;11.20;;
21012;SDS011;10664;53.582;9.712;2022-08-19T01:20:37;12.30;;;11.10;;
21012;SDS011;10664;53.582;9.712;2022-08-19T01:23:03;11.98;;;10.80;;
21012;SDS011;10664;53.582;9.712;2022-08-19T01:25:31;12.60;;;11.05;;
21012;SDS011;10664;53.582;9.712;2022-08-19T01:27:58;13.60;;;12.20;;
21012;SDS011;10664;53.582;9.712;2022-08-19T01:30:29;14.45;;;13.00;;
21012;SDS011;10664;53.582;9.712;2022-08-19T01:32:56;14.73;;;13.13;;
21012;SDS011;10664;53.582;9.712;2022-08-19T01:35:23;14.60;;;13.13;;
21012;SDS011;10664;53.582;9.712;2022-08-19T01:37:51;14.23;;;12.73;;
21012;SDS011;10664;53.582;9.712;2022-08-19T01:40:18;13.65;;;12.38;;
21012;SDS011;10664;53.582;9.712;2022-08-19T01:42:45;13.20;;;11.77;;
21012;SDS011;10664;53.582;9.712;2022-08-19T01:45:12;12.70;;;11.48;;
21012;SDS011;10664;53.582;9.712;2022-08-19T01:47:38;12.10;;;10.90;;
21012;SDS011;10664;53.582;9.712;2022-08-19T01:50:05;11.82;;;10.70;;
21012;SDS011;10664;53.582;9.712;2022-08-19T01:52:32;12.90;;;11.60;;
21012;SDS011;10664;53.582;9.712;2022-08-19T01:54:57;12.48;;;11.18;;
21012;SDS011;10664;53.582;9.712;2022-08-19T01:57:24;13.85;;;12.38;;
21012;SDS011;10664;53.582;9.712;2022-08-19T01:59:50;14.32;;;12.57;;
21012;SDS011;10664;53.582;9.712;2022-08-19T02:02:16;18.70;;;14.52;;
21012;SDS011;10664;53.582;9.712;2022-08-19T02:04:43;20.75;;;16.00;;
21012;SDS011;10664;53.582;9.712;2022-08-19T02:07:10;19.13;;;16.02;;
21012;SDS011;10664;53.582;9.712;2022-08-19T02:09:36;18.67;;;15.50;;
21012;SDS011;10664;53.582;9.712;2022-08-19T02:12:03;19.13;;;14.80;;
21012;SDS011;10664;53.582;9.712;2022-08-19T02:14:29;14.93;;;13.25;;
21012;SDS011;10664;53.582;9.712;2022-08-19T02:16:55;16.23;;;13.43;;
21012;SDS011;10664;53.582;9.712;2022-08-19T02:19:21;14.95;;;13.35;;
21012;SDS011;10664;53.582;9.712;2022-08-19T02:21:47;15.60;;;13.00;;
21012;SDS011;10664;53.582;9.712;2022-08-19T02:24:13;14.07;;;12.68;;
21012;SDS011;10664;53.582;9.712;2022-08-19T02:26:39;12.82;;;11.52;;
21012;SDS011;10664;53.582;9.712;2022-08-19T02:29:05;14.10;;;12.05;;
21012;SDS011;10664;53.582;9.712;2022-08-19T02:31:31;13.32;;;11.90;;
21012;SDS011;10664;53.582;9.712;2022-08-19T02:33:58;14.90;;;11.80;;
21012;SDS011;10664;53.582;9.712;2022-08-19T02:36:24;13.73;;;12.32;;
21012;SDS011;10664;53.582;9.712;2022-08-19T02:38:50;13.73;;;11.85;;
21012;SDS011;10664;53.582;9.712;2022-08-19T02:41:18;13.73;;;11.38;;
21012;SDS011;10664;53.582;9.712;2022-08-19T02:43:44;14.68;;;12.88;;
21012;SDS011;10664;53.582;9.712;2022-08-19T02:46:21;16.48;;;13.23;;
21012;SDS011;10664;53.582;9.712;2022-08-19T02:48:51;17.60;;;15.30;;
21012;SDS011;10664;53.582;9.712;2022-08-19T02:51:21;18.65;;;15.75;;
21012;SDS011;10664;53.582;9.712;2022-08-19T02:53:48;20.00;;;16.05;;
21012;SDS011;10664;53.582;9.712;2022-08-19T02:56:14;19.25;;;16.55;;
21012;SDS011;10664;53.582;9.712;2022-08-19T02:58:40;19.05;;;16.45;;
21012;SDS011;10664;53.582;9.712;2022-08-19T03:01:08;17.35;;;14.30;;
21012;SDS011;10664;53.582;9.712;2022-08-19T03:03:35;15.95;;;14.20;;
21012;SDS011;10664;53.582;9.712;2022-08-19T03:06:08;15.13;;;13.07;;
21012;SDS011;10664;53.582;9.712;2022-08-19T03:08:34;13.77;;;12.18;;
21012;SDS011;10664;53.582;9.712;2022-08-19T03:11:00;11.60;;;10.32;;
21012;SDS011;10664;53.582;9.712;2022-08-19T03:13:26;11.75;;;10.45;;
21012;SDS011;10664;53.582;9.712;2022-08-19T03:15:53;11.23;;;10.10;;
21012;SDS011;10664;53.582;9.712;2022-08-19T03:18:19;10.88;;;9.45;;
21012;SDS011;10664;53.582;9.712;2022-08-19T03:20:47;10.90;;;9.80;;
21012;SDS011;10664;53.582;9.712;2022-08-19T03:23:13;9.85;;;8.85;;
21012;SDS011;10664;53.582;9.712;2022-08-19T03:25:40;11.25;;;10.00;;
21012;SDS011;10664;53.582;9.712;2022-08-19T03:28:08;10.65;;;9.55;;
21012;SDS011;10664;53.582;9.712;2022-08-19T03:30:34;10.85;;;9.82;;
21012;SDS011;10664;53.582;9.712;2022-08-19T03:33:00;11.85;;;10.52;;
21012;SDS011;10664;53.582;9.712;2022-08-19T03:35:26;12.48;;;10.95;;
21012;SDS011;10664;53.582;9.712;2022-08-19T03:37:52;12.20;;;10.90;;
21012;SDS011;10664;53.582;9.712;2022-08-19T03:40:19;11.90;;;10.63;;
21012;SDS011;10664;53.582;9.712;2022-08-19T03:42:45;11.85;;;10.30;;
21012;SDS011;10664;53.582;9.712;2022-08-19T03:45:11;10.13;;;8.85;;
21012;SDS011;10664;53.582;9.712;2022-08-19T03:47:37;10.00;;;8.90;;
21012;SDS011;10664;53.582;9.712;2022-08-19T03:50:03;9.43;;;8.38;;
21012;SDS011;10664;53.582;9.712;2022-08-19T03:52:30;9.20;;;8.38;;
21012;SDS011;10664;53.582;9.712;2022-08-19T03:54:56;8.50;;;7.70;;
21012;SDS011;10664;53.582;9.712;2022-08-19T03:57:22;8.77;;;7.93;;
21012;SDS011;10664;53.582;9.712;2022-08-19T03:59:48;9.25;;;8.35;;
21012;SDS011;10664;53.582;9.712;2022-08-19T04:02:14;8.43;;;7.53;;
21012;SDS011;10664;53.582;9.712;2022-08-19T04:04:40;11.00;;;8.15;;
21012;SDS011;10664;53.582;9.712;2022-08-19T04:07:08;8.50;;;7.72;;
21012;SDS011;10664;53.582;9.712;2022-08-19T04:09:34;9.48;;;8.32;;
21012;SDS011;10664;53.582;9.712;2022-08-19T04:12:02;9.77;;;8.23;;
21012;SDS011;10664;53.582;9.712;2022-08-19T04:14:30;8.88;;;7.97;;
21012;SDS011;10664;53.582;9.712;2022-08-19T04:16:56;9.82;;;8.80;;
21012;SDS011;10664;53.582;9.712;2022-08-19T04:19:23;9.70;;;8.80;;
21012;SDS011;10664;53.582;9.712;2022-08-19T04:21:50;9.93;;;9.00;;
21012;SDS011;10664;53.582;9.712;2022-08-19T04:24:16;9.50;;;8.60;;
21012;SDS011;10664;53.582;9.712;2022-08-19T04:26:43;9.27;;;8.38;;
21012;SDS011;10664;53.582;9.712;2022-08-19T04:29:11;9.00;;;8.20;;
21012;SDS011;10664;53.582;9.712;2022-08-19T04:31:38;9.35;;;7.88;;
21012;SDS011;10664;53.582;9.712;2022-08-19T04:34:05;9.35;;;8.43;;
21012;SDS011;10664;53.582;9.712;2022-08-19T04:36:33;8.38;;;7.57;;
21012;SDS011;10664;53.582;9.712;2022-08-19T04:39:00;8.23;;;7.50;;
21012;SDS011;10664;53.582;9.712;2022-08-19T04:41:26;7.85;;;7.15;;
21012;SDS011;10664;53.582;9.712;2022-08-19T04:44:12;7.60;;;6.80;;
21012;SDS011;10664;53.582;9.712;2022-08-19T04:46:38;8.07;;;7.25;;
21012;SDS011;10664;53.582;9.712;2022-08-19T04:49:04;7.78;;;7.07;;
21012;SDS011;10664;53.582;9.712;2022-08-19T04:51:31;8.10;;;7.13;;
21012;SDS011;10664;53.582;9.712;2022-08-19T04:53:57;7.72;;;6.90;;
21012;SDS011;10664;53.582;9.712;2022-08-19T04:56:25;7.18;;;6.47;;
21012;SDS011;10664;53.582;9.712;2022-08-19T04:58:51;7.00;;;6.43;;
21012;SDS011;10664;53.582;9.712;2022-08-19T05:01:19;7.47;;;6.72;;
21012;SDS011;10664;53.582;9.712;2022-08-19T05:03:45;7.80;;;7.10;;
21012;SDS011;10664;53.582;9.712;2022-08-19T05:06:12;8.00;;;7.28;;
21012;SDS011;10664;53.582;9.712;2022-08-19T05:08:39;8.15;;;7.35;;
21012;SDS011;10664;53.582;9.712;2022-08-19T05:11:15;7.95;;;7.25;;
21012;SDS011;10664;53.582;9.712;2022-08-19T05:13:42;8.00;;;7.30;;
21012;SDS011;10664;53.582;9.712;2022-08-19T05:16:08;7.38;;;6.68;;
21012;SDS011;10664;53.582;9.712;2022-08-19T05:18:34;7.18;;;6.55;;
21012;SDS011;10664;53.582;9.712;2022-08-19T05:21:19;8.15;;;7.32;;
21012;SDS011;10664;53.582;9.712;2022-08-19T05:24:04;8.13;;;6.72;;
21012;SDS011;10664;53.582;9.712;2022-08-19T05:26:37;6.75;;;6.15;;
21012;SDS011;10664;53.582;9.712;2022-08-19T05:29:03;6.47;;;5.93;;
21012;SDS011;10664;53.582;9.712;2022-08-19T05:31:30;6.95;;;6.25;;
21012;SDS011;10664;53.582;9.712;2022-08-19T05:33:56;6.93;;;6.05;;
21012;SDS011;10664;53.582;9.712;2022-08-19T05:36:24;7.60;;;6.30;;
21012;SDS011;10664;53.582;9.712;2022-08-19T05:38:49;6.60;;;6.00;;
21012;SDS011;10664;53.582;9.712;2022-08-19T05:41:17;6.90;;;6.20;;
21012;SDS011;10664;53.582;9.712;2022-08-19T05:43:43;6.95;;;6.35;;
21012;SDS011;10664;53.582;9.712;2022-08-19T05:46:13;7.30;;;6.60;;
21012;SDS011;10664;53.582;9.712;2022-08-19T05:48:41;7.00;;;6.40;;
21012;SDS011;10664;53.582;9.712;2022-08-19T05:51:07;7.07;;;6.47;;
21012;SDS011;10664;53.582;9.712;2022-08-19T05:53:34;6.25;;;5.75;;
21012;SDS011;10664;53.582;9.712;2022-08-19T05:56:03;7.10;;;6.40;;
21012;SDS011;10664;53.582;9.712;2022-08-19T05:58:29;6.82;;;6.13;;
21012;SDS011;10664;53.582;9.712;2022-08-19T06:00:57;6.88;;;6.28;;
21012;SDS011;10664;53.582;9.712;2022-08-19T06:03:23;6.63;;;5.93;;
21012;SDS011;10664;53.582;9.712;2022-08-19T06:05:49;6.75;;;6.25;;
21012;SDS011;10664;53.582;9.712;2022-08-19T06:08:15;6.68;;;6.05;;
21012;SDS011;10664;53.582;9.712;2022-08-19T06:10:43;6.18;;;5.65;;
21012;SDS011;10664;53.582;9.712;2022-08-19T06:13:09;7.15;;;6.03;;
21012;SDS011;10664;53.582;9.712;2022-08-19T06:15:35;7.45;;;6.50;;
21012;SDS011;10664;53.582;9.712;2022-08-19T06:18:00;6.28;;;5.68;;
21012;SDS011;10664;53.582;9.712;2022-08-19T06:20:26;6.72;;;6.13;;
21012;SDS011;10664;53.582;9.712;2022-08-19T06:22:53;6.22;;;5.63;;
21012;SDS011;10664;53.582;9.712;2022-08-19T06:25:19;6.72;;;6.13;;
21012;SDS011;10664;53.582;9.712;2022-08-19T06:27:45;6.45;;;5.90;;
21012;SDS011;10664;53.582;9.712;2022-08-19T06:30:11;5.95;;;5.40;;
21012;SDS011;10664;53.582;9.712;2022-08-19T06:32:38;6.40;;;5.80;;
21012;SDS011;10664;53.582;9.712;2022-08-19T06:35:04;6.38;;;5.78;;
21012;SDS011;10664;53.582;9.712;2022-08-19T06:37:30;5.75;;;5.25;;
21012;SDS011;10664;53.582;9.712;2022-08-19T06:39:56;5.30;;;4.80;;
21012;SDS011;10664;53.582;9.712;2022-08-19T06:42:22;5.43;;;4.93;;
21012;SDS011;10664;53.582;9.712;2022-08-19T06:44:48;5.70;;;5.07;;
21012;SDS011;10664;53.582;9.712;2022-08-19T06:47:16;5.72;;;5.25;;
21012;SDS011;10664;53.582;9.712;2022-08-19T06:49:42;5.63;;;5.13;;
21012;SDS011;10664;53.582;9.712;2022-08-19T06:52:09;5.38;;;4.70;;
21012;SDS011;10664;53.582;9.712;2022-08-19T06:54:39;5.53;;;5.03;;
21012;SDS011;10664;53.582;9.712;2022-08-19T06:57:06;5.88;;;5.18;;
21012;SDS011;10664;53.582;9.712;2022-08-19T06:59:33;5.07;;;4.57;;
21012;SDS011;10664;53.582;9.712;2022-08-19T07:02:04;4.80;;;4.40;;
21012;SDS011;10664;53.582;9.712;2022-08-19T07:04:32;5.57;;;5.07;;
21012;SDS011;10664;53.582;9.712;2022-08-19T07:07:00;5.35;;;4.85;;
21012;SDS011;10664;53.582;9.712;2022-08-19T07:09:26;5.72;;;5.22;;
21012;SDS011;10664;53.582;9.712;2022-08-19T07:11:53;5.47;;;4.97;;
21012;SDS011;10664;53.582;9.712;2022-08-19T07:14:21;5.70;;;5.20;;
21012;SDS011;10664;53.582;9.712;2022-08-19T07:16:48;6.07;;;5.55;;
21012;SDS011;10664;53.582;9.712;2022-08-19T07:19:14;6.10;;;5.60;;
21012;SDS011;10664;53.582;9.712;2022-08-19T07:21:40;5.82;;;5.32;;
21012;SDS011;10664;53.582;9.712;2022-08-19T07:24:06;5.82;;;5.32;;
21012;SDS011;10664;53.582;9.712;2022-08-19T07:26:37;6.47;;;5.50;;
21012;SDS011;10664;53.582;9.712;2022-08-19T07:29:03;6.13;;;5.53;;
21012;SDS011;10664;53.582;9.712;2022-08-19T07:31:29;6.35;;;5.72;;
21012;SDS011;10664;53.582;9.712;2022-08-19T07:33:56;6.18;;;5.40;;
21012;SDS011;10664;53.582;9.712;2022-08-19T07:36:24;5.63;;;5.13;;
21012;SDS011;10664;53.582;9.712;2022-08-19T07:38:50;7.10;;;6.45;;
21012;SDS011;10664;53.582;9.712;2022-08-19T07:41:18;6.93;;;6.22;;
21012;SDS011;10664;53.582;9.712;2022-08-19T07:43:44;6.22;;;5.63;;
21012;SDS011;10664;53.582;9.712;2022-08-19T07:46:11;7.05;;;6.35;;
21012;SDS011;10664;53.582;9.712;2022-08-19T07:48:38;6.88;;;6.28;;
21012;SDS011;10664;53.582;9.712;2022-08-19T07:51:05;6.93;;;6.32;;
21012;SDS011;10664;53.582;9.712;2022-08-19T07:53:33;7.63;;;7.03;;
21012;SDS011;10664;53.582;9.712;2022-08-19T07:55:59;7.13;;;6.43;;
21012;SDS011;10664;53.582;9.712;2022-08-19T07:58:29;7.15;;;6.47;;
21012;SDS011;10664;53.582;9.712;2022-08-19T08:00:56;7.13;;;6.50;;
21012;SDS011;10664;53.582;9.712;2022-08-19T08:03:22;7.55;;;6.53;;
21012;SDS011;10664;53.582;9.712;2022-08-19T08:06:08;8.00;;;7.20;;
21012;SDS011;10664;53.582;9.712;2022-08-19T08:08:53;7.32;;;6.07;;
21012;SDS011;10664;53.582;9.712;2022-08-19T08:11:41;7.47;;;6.40;;
21012;SDS011;10664;53.582;9.712;2022-08-19T08:14:09;7.40;;;6.30;;
21012;SDS011;10664;53.582;9.712;2022-08-19T08:16:36;7.00;;;6.30;;
21012;SDS011;10664;53.582;9.712;2022-08-19T08:19:05;7.38;;;6.38;;
21012;SDS011;10664;53.582;9.712;2022-08-19T08:21:32;8.13;;;7.32;;
21012;SDS011;10664;53.582;9.712;2022-08-19T08:23:59;8.05;;;7.32;;
21012;SDS011;10664;53.582;9.712;2022-08-19T08:26:25;7.63;;;6.93;;
21012;SDS011;10664;53.582;9.712;2022-08-19T08:28:51;7.57;;;6.80;;
21012;SDS011;10664;53.582;9.712;2022-08-19T08:31:18;8.43;;;7.68;;
21012;SDS011;10664;53.582;9.712;2022-08-19T08:33:44;7.18;;;6.47;;
21012;SDS011;10664;53.582;9.712;2022-08-19T08:36:10;7.63;;;6.47;;
21012;SDS011;10664;53.582;9.712;2022-08-19T08:38:38;6.03;;;5.43;;
21012;SDS011;10664;53.582;9.712;2022-08-19T08:43:39;5.97;;;5.38;;
21012;SDS011;10664;53.582;9.712;2022-08-19T08:46:09;6.00;;;5.18;;
21012;SDS011;10664;53.582;9.712;2022-08-19T08:48:37;5.80;;;5.20;;
21012;SDS011;10664;53.582;9.712;2022-08-19T08:51:07;7.50;;;6.57;;
21012;SDS011;10664;53.582;9.712;2022-08-19T08:53:34;7.75;;;7.13;;
21012;SDS011;10664;53.582;9.712;2022-08-19T08:56:02;7.50;;;6.80;;
21012;SDS011;10664;53.582;9.712;2022-08-19T08:58:31;7.50;;;6.80;;
21012;SDS011;10664;53.582;9.712;2022-08-19T09:00:57;8.25;;;7.38;;
21012;SDS011;10664;53.582;9.712;2022-08-19T09:03:25;7.90;;;7.30;;
21012;SDS011;10664;53.582;9.712;2022-08-19T09:05:56;7.65;;;6.45;;
21012;SDS011;10664;53.582;9.712;2022-08-19T09:10:51;7.30;;;6.47;;
21012;SDS011;10664;53.582;9.712;2022-08-19T09:16:04;7.82;;;7.03;;
21012;SDS011;10664;53.582;9.712;2022-08-19T09:18:48;8.82;;;7.95;;
21012;SDS011;10664;53.582;9.712;2022-08-19T09:21:17;7.78;;;7.07;;
21012;SDS011;10664;53.582;9.712;2022-08-19T09:23:43;8.85;;;8.05;;
21012;SDS011;10664;53.582;9.712;2022-08-19T09:26:10;8.88;;;8.07;;
21012;SDS011;10664;53.582;9.712;2022-08-19T09:28:41;7.93;;;7.13;;
21012;SDS011;10664;53.582;9.712;2022-08-19T09:31:11;8.68;;;7.88;;
21012;SDS011;10664;53.582;9.712;2022-08-19T09:33:37;10.93;;;9.82;;
21012;SDS011;10664;53.582;9.712;2022-08-19T09:36:07;9.55;;;8.57;;
21012;SDS011;10664;53.582;9.712;2022-08-19T09:38:34;8.40;;;7.60;;
21012;SDS011;10664;53.582;9.712;2022-08-19T09:41:11;10.38;;;9.38;;
21012;SDS011;10664;53.582;9.712;2022-08-19T09:43:38;9.38;;;8.48;;
21012;SDS011;10664;53.582;9.712;2022-08-19T09:46:05;8.82;;;7.93;;
21012;SDS011;10664;53.582;9.712;2022-08-19T09:48:31;7.20;;;6.60;;
21012;SDS011;10664;53.582;9.712;2022-08-19T09:51:05;8.48;;;7.65;;
21012;SDS011;10664;53.582;9.712;2022-08-19T09:53:32;9.10;;;8.20;;
21012;SDS011;10664;53.582;9.712;2022-08-19T09:55:58;9.07;;;8.15;;
21012;SDS011;10664;53.582;9.712;2022-08-19T09:58:24;9.82;;;8.93;;
21012;SDS011;10664;53.582;9.712;2022-08-19T10:00:53;7.53;;;6.78;;
21012;SDS011;10664;53.582;9.712;2022-08-19T10:03:19;8.95;;;8.15;;
21012;SDS011;10664;53.582;9.712;2022-08-19T10:05:45;10.90;;;9.32;;
21012;SDS011;10664;53.582;9.712;2022-08-19T10:08:36;10.75;;;9.70;;
21012;SDS011;10664;53.582;9.712;2022-08-19T10:11:01;10.05;;;9.13;;
21012;SDS011;10664;53.582;9.712;2022-08-19T10:13:28;10.38;;;9.15;;
21012;SDS011;10664;53.582;9.712;2022-08-19T10:15:55;11.10;;;9.10;;
21012;SDS011;10664;53.582;9.712;2022-08-19T10:18:22;9.70;;;8.82;;
21012;SDS011;10664;53.582;9.712;2022-08-19T10:20:50;9.48;;;8.57;;
21012;SDS011;10664;53.582;9.712;2022-08-19T10:23:17;10.50;;;9.50;;
21012;SDS011;10664;53.582;9.712;2022-08-19T10:25:44;9.60;;;8.60;;
21012;SDS011;10664;53.582;9.712;2022-08-19T10:28:10;10.27;;;9.18;;
21012;SDS011;10664;53.582;9.712;2022-08-19T10:30:37;10.88;;;9.77;;
21012;SDS011;10664;53.582;9.712;2022-08-19T10:33:04;10.60;;;9.60;;
21012;SDS011;10664;53.582;9.712;2022-08-19T10:35:30;11.60;;;10.40;;
21012;SDS011;10664;53.582;9.712;2022-08-19T10:37:56;11.43;;;10.35;;
21012;SDS011;10664;53.582;9.712;2022-08-19T10:40:24;11.70;;;10.50;;
21012;SDS011;10664;53.582;9.712;2022-08-19T10:42:50;10.52;;;9.43;;
21012;SDS011;10664;53.582;9.712;2022-08-19T10:45:16;10.70;;;9.60;;
21012;SDS011;10664;53.582;9.712;2022-08-19T10:47:42;11.10;;;9.70;;
21012;SDS011;10664;53.582;9.712;2022-08-19T10:50:08;11.15;;;10.00;;
21012;SDS011;10664;53.582;9.712;2022-08-19T10:52:53;10.45;;;9.35;;
21012;SDS011;10664;53.582;9.712;2022-08-19T10:55:20;11.98;;;10.77;;
21012;SDS011;10664;53.582;9.712;2022-08-19T10:58:09;13.32;;;11.93;;
21012;SDS011;10664;53.582;9.712;2022-08-19T11:00:35;12.73;;;11.43;;
21012;SDS011;10664;53.582;9.712;2022-08-19T11:03:01;13.52;;;12.07;;
21012;SDS011;10664;53.582;9.712;2022-08-19T11:05:27;14.10;;;12.63;;
21012;SDS011;10664;53.582;9.712;2022-08-19T11:07:54;15.00;;;13.40;;
21012;SDS011;10664;53.582;9.712;2022-08-19T11:10:20;15.40;;;13.80;;
21012;SDS011;10664;53.582;9.712;2022-08-19T11:12:46;15.88;;;14.20;;
21012;SDS011;10664;53.582;9.712;2022-08-19T11:15:12;16.67;;;14.95;;
21012;SDS011;10664;53.582;9.712;2022-08-19T11:17:38;21.88;;;19.33;;
21012;SDS011;10664;53.582;9.712;2022-08-19T11:20:09;106.22;;;85.25;;
21012;SDS011;10664;53.582;9.712;2022-08-19T11:22:35;72.97;;;56.60;;
21012;SDS011;10664;53.582;9.712;2022-08-19T11:25:01;53.65;;;43.22;;
21012;SDS011;10664;53.582;9.712;2022-08-19T11:27:27;56.55;;;40.45;;
21012;SDS011;10664;53.582;9.712;2022-08-19T11:29:53;46.85;;;34.50;;
21012;SDS011;10664;53.582;9.712;2022-08-19T11:32:19;41.75;;;32.40;;
21012;SDS011;10664;53.582;9.712;2022-08-19T11:34:45;48.33;;;36.60;;
21012;SDS011;10664;53.582;9.712;2022-08-19T11:37:11;46.35;;;35.58;;
21012;SDS011;10664;53.582;9.712;2022-08-19T11:39:37;40.95;;;33.13;;
21012;SDS011;10664;53.582;9.712;2022-08-19T11:42:05;34.03;;;26.52;;
21012;SDS011;10664;53.582;9.712;2022-08-19T11:44:51;26.85;;;22.33;;
21012;SDS011;10664;53.582;9.712;2022-08-19T11:47:17;23.88;;;20.23;;
21012;SDS011;10664;53.582;9.712;2022-08-19T11:49:44;20.55;;;18.02;;
21012;SDS011;10664;53.582;9.712;2022-08-19T11:52:10;18.50;;;16.50;;
21012;SDS011;10664;53.582;9.712;2022-08-19T11:54:37;20.85;;;15.40;;
21012;SDS011;10664;53.582;9.712;2022-08-19T11:57:03;19.17;;;15.82;;
21012;SDS011;10664;53.582;9.712;2022-08-19T11:59:29;17.98;;;15.65;;
21012;SDS011;10664;53.582;9.712;2022-08-19T12:01:56;18.15;;;16.25;;
21012;SDS011;10664;53.582;9.712;2022-08-19T12:04:22;17.80;;;16.05;;
21012;SDS011;10664;53.582;9.712;2022-08-19T12:06:48;18.08;;;16.27;;
21012;SDS011;10664;53.582;9.712;2022-08-19T12:09:15;18.50;;;16.60;;
21012;SDS011;10664;53.582;9.712;2022-08-19T12:11:42;17.65;;;15.95;;
21012;SDS011;10664;53.582;9.712;2022-08-19T12:14:11;18.73;;;15.25;;
21012;SDS011;10664;53.582;9.712;2022-08-19T12:16:39;15.77;;;14.18;;
21012;SDS011;10664;53.582;9.712;2022-08-19T12:19:06;16.08;;;14.52;;
21012;SDS011;10664;53.582;9.712;2022-08-19T12:21:32;13.98;;;12.57;;
21012;SDS011;10664;53.582;9.712;2022-08-19T12:23:59;14.00;;;12.70;;
21012;SDS011;10664;53.582;9.712;2022-08-19T12:26:26;14.55;;;13.15;;
21012;SDS011;10664;53.582;9.712;2022-08-19T12:28:52;13.85;;;12.57;;
21012;SDS011;10664;53.582;9.712;2022-08-19T12:31:18;12.95;;;11.65;;
21012;SDS011;10664;53.582;9.712;2022-08-19T12:33:44;13.48;;;12.27;;
21012;SDS011;10664;53.582;9.712;2022-08-19T12:36:12;12.70;;;11.60;;
21012;SDS011;10664;53.582;9.712;2022-08-19T12:38:39;13.73;;;12.43;;
21012;SDS011;10664;53.582;9.712;2022-08-19T12:41:05;13.82;;;12.52;;
21012;SDS011;10664;53.582;9.712;2022-08-19T12:43:35;13.30;;;12.10;;
21012;SDS011;10664;53.582;9.712;2022-08-19T12:46:02;13.15;;;11.95;;
21012;SDS011;10664;53.582;9.712;2022-08-19T12:48:29;12.82;;;11.63;;
21012;SDS011;10664;53.582;9.712;2022-08-19T12:50:55;13.07;;;11.88;;
21012;SDS011;10664;53.582;9.712;2022-08-19T12:53:21;13.50;;;12.27;;
21012;SDS011;10664;53.582;9.712;2022-08-19T12:55:47;15.00;;;12.10;;
21012;SDS011;10664;53.582;9.712;2022-08-19T12:58:13;12.40;;;11.27;;
21012;SDS011;10664;53.582;9.712;2022-08-19T13:00:39;12.45;;;11.25;;
21012;SDS011;10664;53.582;9.712;2022-08-19T13:03:06;12.80;;;11.50;;
21012;SDS011;10664;53.582;9.712;2022-08-19T13:05:32;13.38;;;12.18;;
21012;SDS011;10664;53.582;9.712;2022-08-19T13:07:59;13.02;;;11.73;;
21012;SDS011;10664;53.582;9.712;2022-08-19T13:10:26;12.38;;;11.18;;
21012;SDS011;10664;53.582;9.712;2022-08-19T13:12:53;12.13;;;10.93;;
21012;SDS011;10664;53.582;9.712;2022-08-19T13:15:20;12.38;;;11.20;;
21012;SDS011;10664;53.582;9.712;2022-08-19T13:17:47;13.07;;;11.90;;
21012;SDS011;10664;53.582;9.712;2022-08-19T13:20:14;11.23;;;10.20;;
21012;SDS011;10664;53.582;9.712;2022-08-19T13:22:40;11.98;;;10.75;;
21012;SDS011;10664;53.582;9.712;2022-08-19T13:25:07;11.63;;;10.60;;
21012;SDS011;10664;53.582;9.712;2022-08-19T13:27:33;10.98;;;9.90;;
21012;SDS011;10664;53.582;9.712;2022-08-19T13:29:59;11.77;;;10.68;;
21012;SDS011;10664;53.582;9.712;2022-08-19T13:32:44;12.07;;;11.00;;
21012;SDS011;10664;53.582;9.712;2022-08-19T13:35:28;10.90;;;9.90;;
21012;SDS011;10664;53.582;9.712;2022-08-19T13:37:55;11.93;;;10.85;;
21012;SDS011;10664;53.582;9.712;2022-08-19T13:40:22;12.32;;;11.18;;
21012;SDS011;10664;53.582;9.712;2022-08-19T13:42:50;11.65;;;10.65;;
21012;SDS011;10664;53.582;9.712;2022-08-19T13:45:17;10.73;;;9.82;;
21012;SDS011;10664;53.582;9.712;2022-08-19T13:47:48;10.70;;;9.80;;
21012;SDS011;10664;53.582;9.712;2022-08-19T13:50:15;11.13;;;10.13;;
21012;SDS011;10664;53.582;9.712;2022-08-19T13:52:42;10.38;;;9.57;;
21012;SDS011;10664;53.582;9.712;2022-08-19T13:55:09;10.45;;;9.45;;
21012;SDS011;10664;53.582;9.712;2022-08-19T13:57:35;10.80;;;9.90;;
21012;SDS011;10664;53.582;9.712;2022-08-19T14:00:04;10.80;;;9.80;;
21012;SDS011;10664;53.582;9.712;2022-08-19T14:02:31;9.85;;;9.00;;
21012;SDS011;10664;53.582;9.712;2022-08-19T14:04:58;10.13;;;9.32;;
21012;SDS011;10664;53.582;9.712;2022-08-19T14:07:24;9.52;;;8.73;;
21012;SDS011;10664;53.582;9.712;2022-08-19T14:09:50;10.30;;;9.35;;
21012;SDS011;10664;53.582;9.712;2022-08-19T14:12:22;10.25;;;9.35;;
21012;SDS011;10664;53.582;9.712;2022-08-19T14:14:48;10.65;;;9.80;;
21012;SDS011;10664;53.582;9.712;2022-08-19T14:17:14;10.70;;;9.80;;
21012;SDS011;10664;53.582;9.712;2022-08-19T14:19:40;9.40;;;8.60;;
21012;SDS011;10664;53.582;9.712;2022-08-19T14:22:06;9.98;;;9.07;;
21012;SDS011;10664;53.582;9.712;2022-08-19T14:24:32;9.27;;;8.48;;
21012;SDS011;10664;53.582;9.712;2022-08-19T14:26:58;9.75;;;8.95;;
21012;SDS011;10664;53.582;9.712;2022-08-19T14:29:25;10.23;;;9.43;;
21012;SDS011;10664;53.582;9.712;2022-08-19T14:31:53;9.75;;;8.95;;
21012;SDS011;10664;53.582;9.712;2022-08-19T14:34:21;9.10;;;8.40;;
21012;SDS011;10664;53.582;9.712;2022-08-19T14:36:48;9.70;;;9.00;;
21012;SDS011;10664;53.582;9.712;2022-08-19T14:39:14;8.93;;;8.23;;
21012;SDS011;10664;53.582;9.712;2022-08-19T14:41:40;9.15;;;8.45;;
21012;SDS011;10664;53.582;9.712;2022-08-19T14:44:10;9.35;;;8.50;;
21012;SDS011;10664;53.582;9.712;2022-08-19T14:46:37;9.68;;;8.98;;